Terminal Aerodrome Forecast
Issued by NWS

Home | Current Version | Previous Version | Graphics & Text | Print | Product List | Glossary On
Versions: 1 2 3 4 5 6 7 8 9 10 11 12 13 14 15 16 17 18 19 20 21 22 23
000
FTUS43 KGRB 261735
TAFAUW
TAF
KAUW 261735Z 2618/2718 13006KT 5SM -SHRA SCT015 BKN030
      TEMPO 2618/2620 1 1/2SM TSRA BR SCT007 BKN015CB
     FM262100 12009KT 3SM SHRA BKN015
      TEMPO 2623/2702 1 1/2SM +RA BKN006
     FM270200 VRB03KT 1SM -RA BR OVC004
     FM270600 28010G16KT 3SM -RA BR BKN009
     FM271600 27012G20KT P6SM VCSH BKN018=

USA.gov is the U.S. government's official web portal to all federal, state and local government web resources and services.